Kaisei Maru — JD3114 — position and weather

sailwx.info

Track history (hours):
 
Tides and Currents Weather Stations Pressure Air Temp Water Temp Dewpoint Dewpoint Depression Visibility Wind Speed Wind Dir Waves Ship Positions

Kaisei Maru

Last reported at 2015-Mar-25 09:33 UTC. Time now 2015-Mar-28 23:56 UTC.
Position N 34°10' E 134°57'.

Length 52 m; draft 3.8 m.

Type: Tanker. MMSI: 431001837.

Date/timePositionNaut miles runAvg speedWind from/ knotsBaromVisibWave heightAir tempDewpointWater temp
2015-Mar-25 09:33N 34°10' E 134°57'1210.8
2015-Mar-25 08:28N 34°20' E 135°05'1010.7
2015-Mar-25 07:31N 34°25' E 135°16'3 2.9
2015-Mar-25 06:33N 34°26' E 135°19'0 0.0
2015-Mar-25 05:33N 34°26' E 135°19'0 0.0
2015-Mar-25 04:33N 34°26' E 135°19'2 1.7
2015-Mar-25 03:28N 34°28' E 135°19'6 6.3
2015-Mar-25 02:33N 34°33' E 135°20'9 8.5
2015-Mar-25 01:33N 34°40' E 135°27'0 0.0
2015-Mar-25 00:33N 34°40' E 135°27'0 0.0
2015-Mar-24 23:33N 34°40' E 135°27'6 6.0
2015-Mar-24 22:33N 34°41' E 135°19'6 5.9
2015-Mar-24 21:33N 34°41' E 135°12'0 0.0
2015-Mar-24 20:33N 34°41' E 135°12'0 0.0
2015-Mar-24 19:33N 34°41' E 135°12'0 0.0
2015-Mar-24 18:33N 34°41' E 135°12'0 0.0
2015-Mar-24 17:33N 34°41' E 135°12'0 0.0
2015-Mar-24 16:33N 34°41' E 135°12'0 0.0
2015-Mar-24 15:33N 34°41' E 135°12'0 0.0
2015-Mar-24 14:33N 34°41' E 135°12'0 0.0
2015-Mar-24 13:33N 34°41' E 135°12'0 0.0
2015-Mar-24 12:33N 34°41' E 135°12'0 0.0
2015-Mar-24 11:33N 34°41' E 135°12'0 0.0
2015-Mar-24 10:33N 34°41' E 135°12'0 0.0
2015-Mar-24 09:33N 34°41' E 135°12'3 3.2
2015-Mar-24 08:33N 34°41' E 135°16'6 6.3
2015-Mar-24 07:33N 34°42' E 135°24'0 0.0
2015-Mar-24 06:25N 34°42' E 135°23'0 0.0
2015-Mar-24 03:32N 34°42' E 135°23'4 4.0
2015-Mar-24 02:33N 34°41' E 135°19'6 6.0
2015-Mar-24 01:33N 34°41' E 135°12'0 0.0
2015-Mar-24 00:33N 34°41' E 135°12'0 0.0
2015-Mar-23 23:33N 34°41' E 135°12'0 0.2
2015-Mar-23 22:33N 34°41' E 135°12'1 0.6
2015-Mar-23 21:33N 34°41' E 135°12'0 0.0
2015-Mar-23 20:33N 34°41' E 135°12'0 0.0
2015-Mar-23 19:33N 34°41' E 135°12'0 0.0
2015-Mar-23 18:33N 34°41' E 135°12'0 0.0
2015-Mar-23 17:33N 34°41' E 135°12'0 0.0
2015-Mar-23 16:33N 34°41' E 135°12'0 0.0
2015-Mar-23 15:33N 34°41' E 135°12'0 0.0
2015-Mar-23 14:33N 34°41' E 135°12'0 0.0
2015-Mar-23 13:33N 34°41' E 135°12'0 0.0
2015-Mar-23 12:33N 34°41' E 135°12'0 0.0
2015-Mar-23 11:33N 34°41' E 135°12'4 3.9
2015-Mar-23 10:32N 34°42' E 135°17'1 1.0
2015-Mar-23 09:33N 34°42' E 135°18'4 3.5
2015-Mar-23 08:33N 34°39' E 135°19'7 5.3
2015-Mar-23 07:19N 34°35' E 135°26'0 0.0
2015-Mar-23 06:11N 34°35' E 135°26'0 0.0
2015-Mar-23 05:33N 34°35' E 135°26'0 0.0
2015-Mar-23 04:30N 34°35' E 135°26'8 7.9
2015-Mar-23 03:33N 34°37' E 135°17'6 5.6
2015-Mar-23 02:32N 34°41' E 135°12'0 0.0
2015-Mar-23 01:33N 34°41' E 135°12'0 0.0
2015-Mar-23 00:33N 34°41' E 135°12'0 0.0
2015-Mar-22 23:33N 34°41' E 135°12'0 0.0
2015-Mar-22 22:33N 34°41' E 135°12'0 0.0
2015-Mar-22 21:33N 34°41' E 135°12'0 0.0
2015-Mar-22 20:33N 34°41' E 135°12'0 0.0
2015-Mar-22 19:33N 34°41' E 135°12'0 0.0
2015-Mar-22 18:33N 34°41' E 135°12'0 0.0
2015-Mar-22 17:33N 34°41' E 135°12'0 0.0
2015-Mar-22 16:33N 34°41' E 135°12'0 0.0
2015-Mar-22 15:33N 34°41' E 135°12'0 0.0
2015-Mar-22 14:33N 34°41' E 135°12'0 0.0
2015-Mar-22 13:33N 34°41' E 135°12'0 0.0
2015-Mar-22 12:33N 34°41' E 135°12'0 0.0
2015-Mar-22 11:33N 34°41' E 135°12'0 0.0
2015-Mar-22 10:33N 34°41' E 135°12'0 0.0
2015-Mar-22 09:33N 34°41' E 135°12'0 0.0
2015-Mar-22 08:33N 34°41' E 135°12'0 0.0
2015-Mar-22 07:33N 34°41' E 135°12'0 0.0
2015-Mar-22 06:33N 34°41' E 135°12'0 0.0
2015-Mar-22 05:33N 34°41' E 135°12'0 0.0
2015-Mar-22 04:33N 34°41' E 135°12'0 0.0
2015-Mar-22 03:33N 34°41' E 135°12'0 0.0
2015-Mar-22 02:33N 34°41' E 135°12'0 0.0
2015-Mar-22 01:33N 34°41' E 135°12'0 0.0
2015-Mar-22 00:33N 34°41' E 135°12'0 0.0
2015-Mar-21 23:33N 34°41' E 135°12'0 0.0
2015-Mar-21 22:33N 34°41' E 135°12'0 0.0
2015-Mar-21 21:33N 34°41' E 135°12'0 0.0
2015-Mar-21 20:33N 34°41' E 135°12'0 0.0
2015-Mar-21 19:33N 34°41' E 135°12'0 0.0
2015-Mar-21 18:33N 34°41' E 135°12'0 0.0
2015-Mar-21 17:33N 34°41' E 135°12'0 0.0
2015-Mar-21 16:33N 34°41' E 135°12'0 0.0
2015-Mar-21 15:33N 34°41' E 135°12'0 0.0
2015-Mar-21 14:33N 34°41' E 135°12'0 0.0
2015-Mar-21 13:33N 34°41' E 135°12'0 0.0
2015-Mar-21 12:33N 34°41' E 135°12'0 0.0
2015-Mar-21 11:33N 34°41' E 135°12'0 0.0
2015-Mar-21 10:33N 34°41' E 135°12'0 0.0
2015-Mar-21 09:33N 34°41' E 135°12'0 0.0
2015-Mar-21 08:33N 34°41' E 135°12'0 0.0
2015-Mar-21 07:33N 34°41' E 135°12'0 0.0
2015-Mar-21 06:33N 34°41' E 135°12'0 0.0
2015-Mar-21 05:33N 34°41' E 135°12'0 0.0
2015-Mar-21 04:33N 34°41' E 135°12'0 0.0
2015-Mar-21 03:33N 34°41' E 135°12'0 0.0
2015-Mar-21 02:33N 34°41' E 135°12'0 0.0
2015-Mar-21 01:33N 34°41' E 135°12'0 0.0
2015-Mar-21 00:33N 34°41' E 135°12'0 0.0
2015-Mar-20 23:33N 34°41' E 135°12'0 0.0
2015-Mar-20 22:33N 34°41' E 135°12'0 0.0
2015-Mar-20 21:33N 34°41' E 135°12'0 0.0
2015-Mar-20 20:33N 34°41' E 135°12'0 0.0
2015-Mar-20 19:33N 34°41' E 135°12'0 0.0
2015-Mar-20 18:33N 34°41' E 135°12'0 0.0
2015-Mar-20 17:33N 34°41' E 135°12'0 0.0
2015-Mar-20 16:33N 34°41' E 135°12'0 0.0
2015-Mar-20 15:33N 34°41' E 135°12'0 0.0
2015-Mar-20 14:33N 34°41' E 135°12'0 0.0
2015-Mar-20 13:33N 34°41' E 135°12'0 0.0
2015-Mar-20 12:33N 34°41' E 135°12'0 0.0
2015-Mar-20 11:33N 34°41' E 135°12'0 0.0
2015-Mar-20 10:33N 34°41' E 135°12'0 0.0
2015-Mar-20 09:33N 34°41' E 135°12'0 0.0
2015-Mar-20 08:32N 34°41' E 135°12'0 0.0
2015-Mar-20 07:33N 34°41' E 135°12'0 0.0
2015-Mar-20 06:33N 34°41' E 135°12'0 0.0
2015-Mar-20 05:32N 34°41' E 135°12'0 0.0
2015-Mar-20 04:33N 34°41' E 135°12'0 0.0
2015-Mar-20 03:33N 34°41' E 135°12'0 0.0
2015-Mar-20 02:33N 34°41' E 135°12'0 0.0
2015-Mar-20 01:33N 34°41' E 135°12'0 0.0
2015-Mar-20 00:32N 34°41' E 135°12'0 0.0
2015-Mar-19 23:33N 34°41' E 135°12'0 0.4
2015-Mar-19 22:33N 34°41' E 135°13'0 0.0
2015-Mar-19 21:33N 34°41' E 135°13'5 5.5
2015-Mar-19 20:33N 34°36' E 135°15'1010.1
2015-Mar-19 19:33N 34°27' E 135°09'1310.0
2015-Mar-19 18:14N 34°15' E 135°03'7 9.7
2015-Mar-19 17:32N 34°09' E 135°01'10 9.3
2015-Mar-19 16:30N 33°59' E 134°58'235 7.5
2015-Mar-18 09:23N 35°04' E 139°32'810.2
2015-Mar-18 08:33N 35°08' E 139°41'10 9.5
2015-Mar-18 07:33N 35°17' E 139°45'10 9.6
2015-Mar-18 06:34N 35°26' E 139°45'5 4.4
2015-Mar-18 05:32N 35°30' E 139°47'1 0.8
2015-Mar-18 04:26N 35°31' E 139°46'0 0.1
2015-Mar-18 03:32N 35°31' E 139°46'5 4.9
2015-Mar-18 02:32N 35°29' E 139°40'0 0.0
2015-Mar-18 01:25N 35°29' E 139°40'0 0.0
2015-Mar-18 00:25N 35°29' E 139°40'3 3.7
2015-Mar-17 23:33N 35°27' E 139°43'0 0.1
2015-Mar-17 22:33N 35°27' E 139°43'5 5.0
2015-Mar-17 21:33N 35°22' E 139°45'8 8.3
2015-Mar-17 20:33N 35°14' E 139°47'9 9.3
2015-Mar-17 19:33N 35°05' E 139°43'1110.7
2015-Mar-17 18:33N 34°60' E 139°31'229 8.8
2015-Mar-16 16:30N 34°02' E 135°02'1010.2
2015-Mar-16 15:33N 34°12' E 135°03'1310.4
2015-Mar-16 14:17N 34°25' E 135°06'811.4
2015-Mar-16 13:33N 34°33' E 135°09'7 7.2
2015-Mar-16 12:33N 34°39' E 135°12'1 1.0
2015-Mar-16 11:33N 34°39' E 135°13'9 8.9
2015-Mar-16 10:33N 34°41' E 135°24'1 1.1
2015-Mar-16 09:16N 34°42' E 135°24'0 0.0
2015-Mar-16 08:30N 34°42' E 135°24'0 0.0
2015-Mar-16 07:32N 34°42' E 135°24'0 0.0
2015-Mar-16 06:08N 34°42' E 135°24'0 0.0
2015-Mar-16 05:23N 34°42' E 135°24'0 0.0
2015-Mar-16 04:32N 34°42' E 135°24'0 0.1
2015-Mar-16 03:32N 34°42' E 135°24'1 0.5
2015-Mar-16 02:33N 34°42' E 135°24'0 0.4
2015-Mar-16 01:26N 34°42' E 135°23'0 0.1
2015-Mar-16 00:30N 34°42' E 135°24'0 0.2
2015-Mar-15 21:33N 34°42' E 135°24'6 6.4
2015-Mar-15 20:33N 34°37' E 135°19'8 8.3
2015-Mar-15 19:33N 34°30' E 135°13'9 9.1
2015-Mar-15 18:33N 34°23' E 135°07'10 9.8
2015-Mar-15 17:33N 34°14' E 135°03'10 8.7
2015-Mar-15 16:27N 34°04' E 135°02'  
Track history (hours):
 
Tides and Currents Weather Stations Pressure Air Temp Water Temp Dewpoint Dewpoint Depression Visibility Wind Speed Wind Dir Waves Ship Positions

Kaisei Maru

Last reported at 2015-Mar-25 09:33 UTC. Time now 2015-Mar-28 23:56 UTC.
Position N 34°10' E 134°57'.

Length 52 m; draft 3.8 m.

Type: Tanker. MMSI: 431001837.

Date/timePositionNaut miles runAvg speedWind from/ knotsBaromVisibWave heightAir tempDewpointWater temp
2015-Mar-25 09:33N 34°10' E 134°57'1210.8
2015-Mar-25 08:28N 34°20' E 135°05'1010.7
2015-Mar-25 07:31N 34°25' E 135°16'3 2.9
2015-Mar-25 06:33N 34°26' E 135°19'0 0.0
2015-Mar-25 05:33N 34°26' E 135°19'0 0.0
2015-Mar-25 04:33N 34°26' E 135°19'2 1.7
2015-Mar-25 03:28N 34°28' E 135°19'6 6.3
2015-Mar-25 02:33N 34°33' E 135°20'9 8.5
2015-Mar-25 01:33N 34°40' E 135°27'0 0.0
2015-Mar-25 00:33N 34°40' E 135°27'0 0.0
2015-Mar-24 23:33N 34°40' E 135°27'6 6.0
2015-Mar-24 22:33N 34°41' E 135°19'6 5.9
2015-Mar-24 21:33N 34°41' E 135°12'0 0.0
2015-Mar-24 20:33N 34°41' E 135°12'0 0.0
2015-Mar-24 19:33N 34°41' E 135°12'0 0.0
2015-Mar-24 18:33N 34°41' E 135°12'0 0.0
2015-Mar-24 17:33N 34°41' E 135°12'0 0.0
2015-Mar-24 16:33N 34°41' E 135°12'0 0.0
2015-Mar-24 15:33N 34°41' E 135°12'0 0.0
2015-Mar-24 14:33N 34°41' E 135°12'0 0.0
2015-Mar-24 13:33N 34°41' E 135°12'0 0.0
2015-Mar-24 12:33N 34°41' E 135°12'0 0.0
2015-Mar-24 11:33N 34°41' E 135°12'0 0.0
2015-Mar-24 10:33N 34°41' E 135°12'0 0.0
2015-Mar-24 09:33N 34°41' E 135°12'3 3.2
2015-Mar-24 08:33N 34°41' E 135°16'6 6.3
2015-Mar-24 07:33N 34°42' E 135°24'0 0.0
2015-Mar-24 06:25N 34°42' E 135°23'0 0.0
2015-Mar-24 03:32N 34°42' E 135°23'4 4.0
2015-Mar-24 02:33N 34°41' E 135°19'6 6.0
2015-Mar-24 01:33N 34°41' E 135°12'0 0.0
2015-Mar-24 00:33N 34°41' E 135°12'0 0.0
2015-Mar-23 23:33N 34°41' E 135°12'0 0.2
2015-Mar-23 22:33N 34°41' E 135°12'1 0.6
2015-Mar-23 21:33N 34°41' E 135°12'0 0.0
2015-Mar-23 20:33N 34°41' E 135°12'0 0.0
2015-Mar-23 19:33N 34°41' E 135°12'0 0.0
2015-Mar-23 18:33N 34°41' E 135°12'0 0.0
2015-Mar-23 17:33N 34°41' E 135°12'0 0.0
2015-Mar-23 16:33N 34°41' E 135°12'0 0.0
2015-Mar-23 15:33N 34°41' E 135°12'0 0.0
2015-Mar-23 14:33N 34°41' E 135°12'0 0.0
2015-Mar-23 13:33N 34°41' E 135°12'0 0.0
2015-Mar-23 12:33N 34°41' E 135°12'0 0.0
2015-Mar-23 11:33N 34°41' E 135°12'4 3.9
2015-Mar-23 10:32N 34°42' E 135°17'1 1.0
2015-Mar-23 09:33N 34°42' E 135°18'4 3.5
2015-Mar-23 08:33N 34°39' E 135°19'7 5.3
2015-Mar-23 07:19N 34°35' E 135°26'0 0.0
2015-Mar-23 06:11N 34°35' E 135°26'0 0.0
2015-Mar-23 05:33N 34°35' E 135°26'0 0.0
2015-Mar-23 04:30N 34°35' E 135°26'8 7.9
2015-Mar-23 03:33N 34°37' E 135°17'6 5.6
2015-Mar-23 02:32N 34°41' E 135°12'0 0.0
2015-Mar-23 01:33N 34°41' E 135°12'0 0.0
2015-Mar-23 00:33N 34°41' E 135°12'0 0.0
2015-Mar-22 23:33N 34°41' E 135°12'0 0.0
2015-Mar-22 22:33N 34°41' E 135°12'0 0.0
2015-Mar-22 21:33N 34°41' E 135°12'0 0.0
2015-Mar-22 20:33N 34°41' E 135°12'0 0.0
2015-Mar-22 19:33N 34°41' E 135°12'0 0.0
2015-Mar-22 18:33N 34°41' E 135°12'0 0.0
2015-Mar-22 17:33N 34°41' E 135°12'0 0.0
2015-Mar-22 16:33N 34°41' E 135°12'0 0.0
2015-Mar-22 15:33N 34°41' E 135°12'0 0.0
2015-Mar-22 14:33N 34°41' E 135°12'0 0.0
2015-Mar-22 13:33N 34°41' E 135°12'0 0.0
2015-Mar-22 12:33N 34°41' E 135°12'0 0.0
2015-Mar-22 11:33N 34°41' E 135°12'0 0.0
2015-Mar-22 10:33N 34°41' E 135°12'0 0.0
2015-Mar-22 09:33N 34°41' E 135°12'0 0.0
2015-Mar-22 08:33N 34°41' E 135°12'0 0.0
2015-Mar-22 07:33N 34°41' E 135°12'0 0.0
2015-Mar-22 06:33N 34°41' E 135°12'0 0.0
2015-Mar-22 05:33N 34°41' E 135°12'0 0.0
2015-Mar-22 04:33N 34°41' E 135°12'0 0.0
2015-Mar-22 03:33N 34°41' E 135°12'0 0.0
2015-Mar-22 02:33N 34°41' E 135°12'0 0.0
2015-Mar-22 01:33N 34°41' E 135°12'0 0.0
2015-Mar-22 00:33N 34°41' E 135°12'0 0.0
2015-Mar-21 23:33N 34°41' E 135°12'0 0.0
2015-Mar-21 22:33N 34°41' E 135°12'0 0.0
2015-Mar-21 21:33N 34°41' E 135°12'0 0.0
2015-Mar-21 20:33N 34°41' E 135°12'0 0.0
2015-Mar-21 19:33N 34°41' E 135°12'0 0.0
2015-Mar-21 18:33N 34°41' E 135°12'0 0.0
2015-Mar-21 17:33N 34°41' E 135°12'0 0.0
2015-Mar-21 16:33N 34°41' E 135°12'0 0.0
2015-Mar-21 15:33N 34°41' E 135°12'0 0.0
2015-Mar-21 14:33N 34°41' E 135°12'0 0.0
2015-Mar-21 13:33N 34°41' E 135°12'0 0.0
2015-Mar-21 12:33N 34°41' E 135°12'0 0.0
2015-Mar-21 11:33N 34°41' E 135°12'0 0.0
2015-Mar-21 10:33N 34°41' E 135°12'0 0.0
2015-Mar-21 09:33N 34°41' E 135°12'0 0.0
2015-Mar-21 08:33N 34°41' E 135°12'0 0.0
2015-Mar-21 07:33N 34°41' E 135°12'0 0.0
2015-Mar-21 06:33N 34°41' E 135°12'0 0.0
2015-Mar-21 05:33N 34°41' E 135°12'0 0.0
2015-Mar-21 04:33N 34°41' E 135°12'0 0.0
2015-Mar-21 03:33N 34°41' E 135°12'0 0.0
2015-Mar-21 02:33N 34°41' E 135°12'0 0.0
2015-Mar-21 01:33N 34°41' E 135°12'0 0.0
2015-Mar-21 00:33N 34°41' E 135°12'0 0.0
2015-Mar-20 23:33N 34°41' E 135°12'0 0.0
2015-Mar-20 22:33N 34°41' E 135°12'0 0.0
2015-Mar-20 21:33N 34°41' E 135°12'0 0.0
2015-Mar-20 20:33N 34°41' E 135°12'0 0.0
2015-Mar-20 19:33N 34°41' E 135°12'0 0.0
2015-Mar-20 18:33N 34°41' E 135°12'0 0.0
2015-Mar-20 17:33N 34°41' E 135°12'0 0.0
2015-Mar-20 16:33N 34°41' E 135°12'0 0.0
2015-Mar-20 15:33N 34°41' E 135°12'0 0.0
2015-Mar-20 14:33N 34°41' E 135°12'0 0.0
2015-Mar-20 13:33N 34°41' E 135°12'0 0.0
2015-Mar-20 12:33N 34°41' E 135°12'0 0.0
2015-Mar-20 11:33N 34°41' E 135°12'0 0.0
2015-Mar-20 10:33N 34°41' E 135°12'0 0.0
2015-Mar-20 09:33N 34°41' E 135°12'0 0.0
2015-Mar-20 08:32N 34°41' E 135°12'0 0.0
2015-Mar-20 07:33N 34°41' E 135°12'0 0.0
2015-Mar-20 06:33N 34°41' E 135°12'0 0.0
2015-Mar-20 05:32N 34°41' E 135°12'0 0.0
2015-Mar-20 04:33N 34°41' E 135°12'0 0.0
2015-Mar-20 03:33N 34°41' E 135°12'0 0.0
2015-Mar-20 02:33N 34°41' E 135°12'0 0.0
2015-Mar-20 01:33N 34°41' E 135°12'0 0.0
2015-Mar-20 00:32N 34°41' E 135°12'0 0.0
2015-Mar-19 23:33N 34°41' E 135°12'0 0.4
2015-Mar-19 22:33N 34°41' E 135°13'0 0.0
2015-Mar-19 21:33N 34°41' E 135°13'5 5.5
2015-Mar-19 20:33N 34°36' E 135°15'1010.1
2015-Mar-19 19:33N 34°27' E 135°09'1310.0
2015-Mar-19 18:14N 34°15' E 135°03'7 9.7
2015-Mar-19 17:32N 34°09' E 135°01'10 9.3
2015-Mar-19 16:30N 33°59' E 134°58'235 7.5
2015-Mar-18 09:23N 35°04' E 139°32'810.2
2015-Mar-18 08:33N 35°08' E 139°41'10 9.5
2015-Mar-18 07:33N 35°17' E 139°45'10 9.6
2015-Mar-18 06:34N 35°26' E 139°45'5 4.4
2015-Mar-18 05:32N 35°30' E 139°47'1 0.8
2015-Mar-18 04:26N 35°31' E 139°46'0 0.1
2015-Mar-18 03:32N 35°31' E 139°46'5 4.9
2015-Mar-18 02:32N 35°29' E 139°40'0 0.0
2015-Mar-18 01:25N 35°29' E 139°40'0 0.0
2015-Mar-18 00:25N 35°29' E 139°40'3 3.7
2015-Mar-17 23:33N 35°27' E 139°43'0 0.1
2015-Mar-17 22:33N 35°27' E 139°43'5 5.0
2015-Mar-17 21:33N 35°22' E 139°45'8 8.3
2015-Mar-17 20:33N 35°14' E 139°47'9 9.3
2015-Mar-17 19:33N 35°05' E 139°43'1110.7
2015-Mar-17 18:33N 34°60' E 139°31'229 8.8
2015-Mar-16 16:30N 34°02' E 135°02'1010.2
2015-Mar-16 15:33N 34°12' E 135°03'1310.4
2015-Mar-16 14:17N 34°25' E 135°06'811.4
2015-Mar-16 13:33N 34°33' E 135°09'7 7.2
2015-Mar-16 12:33N 34°39' E 135°12'1 1.0
2015-Mar-16 11:33N 34°39' E 135°13'9 8.9
2015-Mar-16 10:33N 34°41' E 135°24'1 1.1
2015-Mar-16 09:16N 34°42' E 135°24'0 0.0
2015-Mar-16 08:30N 34°42' E 135°24'0 0.0
2015-Mar-16 07:32N 34°42' E 135°24'0 0.0
2015-Mar-16 06:08N 34°42' E 135°24'0 0.0
2015-Mar-16 05:23N 34°42' E 135°24'0 0.0
2015-Mar-16 04:32N 34°42' E 135°24'0 0.1
2015-Mar-16 03:32N 34°42' E 135°24'1 0.5
2015-Mar-16 02:33N 34°42' E 135°24'0 0.4
2015-Mar-16 01:26N 34°42' E 135°23'0 0.1
2015-Mar-16 00:30N 34°42' E 135°24'0 0.2
2015-Mar-15 21:33N 34°42' E 135°24'6 6.4
2015-Mar-15 20:33N 34°37' E 135°19'8 8.3
2015-Mar-15 19:33N 34°30' E 135°13'9 9.1
2015-Mar-15 18:33N 34°23' E 135°07'10 9.8
2015-Mar-15 17:33N 34°14' E 135°03'10 8.7
2015-Mar-15 16:27N 34°04' E 135°02'  

Dump ship's entire track history